sensor_id;sensor_type;location;lat;lon;timestamp;temperature;humidity
35305;DHT22;26433;48.034;-1.764;2022-09-19T05:05:17;11.90;71.50
35305;DHT22;26433;48.034;-1.764;2022-09-19T05:10:21;11.90;71.40
35305;DHT22;26433;48.034;-1.764;2022-09-19T05:15:25;11.90;71.40
35305;DHT22;26433;48.034;-1.764;2022-09-19T05:20:30;11.90;71.50
35305;DHT22;26433;48.034;-1.764;2022-09-19T05:25:38;11.90;71.60
35305;DHT22;26433;48.034;-1.764;2022-09-19T05:30:46;11.90;71.50
35305;DHT22;26433;48.034;-1.764;2022-09-19T05:35:54;11.80;71.70
35305;DHT22;26433;48.034;-1.764;2022-09-19T05:41:04;11.80;71.80
35305;DHT22;26433;48.034;-1.764;2022-09-19T05:46:09;11.80;71.80
35305;DHT22;26433;48.034;-1.764;2022-09-19T05:51:16;11.80;71.80
35305;DHT22;26433;48.034;-1.764;2022-09-19T05:56:20;11.70;72.00
35305;DHT22;26433;48.034;-1.764;2022-09-19T06:01:24;11.70;72.10
35305;DHT22;26433;48.034;-1.764;2022-09-19T06:06:35;11.70;72.20
35305;DHT22;26433;48.034;-1.764;2022-09-19T06:11:39;11.70;72.30
35305;DHT22;26433;48.034;-1.764;2022-09-19T06:16:43;11.70;72.40
35305;DHT22;26433;48.034;-1.764;2022-09-19T06:21:51;11.80;72.30
35305;DHT22;26433;48.034;-1.764;2022-09-19T06:26:55;11.80;72.30
35305;DHT22;26433;48.034;-1.764;2022-09-19T06:32:01;11.90;72.20
35305;DHT22;26433;48.034;-1.764;2022-09-19T06:37:10;12.00;72.20
35305;DHT22;26433;48.034;-1.764;2022-09-19T06:42:14;12.10;72.10
35305;DHT22;26433;48.034;-1.764;2022-09-19T06:47:21;12.20;72.20
35305;DHT22;26433;48.034;-1.764;2022-09-19T06:52:28;12.20;72.30
35305;DHT22;26433;48.034;-1.764;2022-09-19T06:57:31;12.40;72.40
35305;DHT22;26433;48.034;-1.764;2022-09-19T07:02:35;12.50;72.30
35305;DHT22;26433;48.034;-1.764;2022-09-19T07:07:40;12.60;72.20
35305;DHT22;26433;48.034;-1.764;2022-09-19T07:12:50;12.80;72.20
35305;DHT22;26433;48.034;-1.764;2022-09-19T07:17:58;12.90;72.40
35305;DHT22;26433;48.034;-1.764;2022-09-19T07:23:05;13.00;72.30
35305;DHT22;26433;48.034;-1.764;2022-09-19T07:28:16;13.20;72.30
35305;DHT22;26433;48.034;-1.764;2022-09-19T07:33:21;13.40;72.30
35305;DHT22;26433;48.034;-1.764;2022-09-19T07:38:27;13.50;72.20
35305;DHT22;26433;48.034;-1.764;2022-09-19T07:43:32;13.70;72.30
35305;DHT22;26433;48.034;-1.764;2022-09-19T07:48:37;13.80;72.30
35305;DHT22;26433;48.034;-1.764;2022-09-19T07:53:42;13.90;72.40
35305;DHT22;26433;48.034;-1.764;2022-09-19T07:58:46;14.10;72.50
35305;DHT22;26433;48.034;-1.764;2022-09-19T08:03:50;14.30;72.50
35305;DHT22;26433;48.034;-1.764;2022-09-19T08:08:58;14.40;72.30
35305;DHT22;26433;48.034;-1.764;2022-09-19T08:14:05;14.70;71.70
35305;DHT22;26433;48.034;-1.764;2022-09-19T08:19:11;14.70;71.70
35305;DHT22;26433;48.034;-1.764;2022-09-19T08:24:17;14.90;71.80
35305;DHT22;26433;48.034;-1.764;2022-09-19T08:29:22;15.20;71.80
35305;DHT22;26433;48.034;-1.764;2022-09-19T08:34:29;15.50;71.40
35305;DHT22;26433;48.034;-1.764;2022-09-19T08:39:35;15.80;71.20
35305;DHT22;26433;48.034;-1.764;2022-09-19T08:45:03;16.10;70.80
35305;DHT22;26433;48.034;-1.764;2022-09-19T08:50:13;16.40;69.70
35305;DHT22;26433;48.034;-1.764;2022-09-19T08:55:21;17.20;68.90
35305;DHT22;26433;48.034;-1.764;2022-09-19T09:00:30;17.80;68.10
35305;DHT22;26433;48.034;-1.764;2022-09-19T09:05:43;18.40;66.90
35305;DHT22;26433;48.034;-1.764;2022-09-19T09:10:51;19.20;65.60
35305;DHT22;26433;48.034;-1.764;2022-09-19T09:16:04;19.90;64.20
35305;DHT22;26433;48.034;-1.764;2022-09-19T09:21:17;20.50;63.10
35305;DHT22;26433;48.034;-1.764;2022-09-19T09:26:29;21.20;62.10
35305;DHT22;26433;48.034;-1.764;2022-09-19T09:31:43;22.00;60.80
35305;DHT22;26433;48.034;-1.764;2022-09-19T09:36:52;22.90;59.20
35305;DHT22;26433;48.034;-1.764;2022-09-19T09:42:01;23.60;57.60
35305;DHT22;26433;48.034;-1.764;2022-09-19T09:47:17;24.10;56.70
35305;DHT22;26433;48.034;-1.764;2022-09-19T09:52:33;24.60;55.90
35305;DHT22;26433;48.034;-1.764;2022-09-19T09:57:47;25.40;54.60
35305;DHT22;26433;48.034;-1.764;2022-09-19T10:03:04;26.20;53.30
35305;DHT22;26433;48.034;-1.764;2022-09-19T10:08:33;26.70;52.40
35305;DHT22;26433;48.034;-1.764;2022-09-19T10:13:48;27.20;51.60
35305;DHT22;26433;48.034;-1.764;2022-09-19T10:19:00;27.50;51.20
35305;DHT22;26433;48.034;-1.764;2022-09-19T10:29:55;27.90;49.90
35305;DHT22;26433;48.034;-1.764;2022-09-19T10:35:05;28.00;49.90
35305;DHT22;26433;48.034;-1.764;2022-09-19T10:40:17;28.40;49.30
35305;DHT22;26433;48.034;-1.764;2022-09-19T10:45:22;28.90;48.10
35305;DHT22;26433;48.034;-1.764;2022-09-19T10:50:29;28.70;48.30
35305;DHT22;26433;48.034;-1.764;2022-09-19T10:55:36;29.10;47.90
35305;DHT22;26433;48.034;-1.764;2022-09-19T11:00:49;29.50;47.00
35305;DHT22;26433;48.034;-1.764;2022-09-19T11:06:06;29.90;46.20
35305;DHT22;26433;48.034;-1.764;2022-09-19T11:11:21;29.80;45.60
35305;DHT22;26433;48.034;-1.764;2022-09-19T11:16:33;29.50;45.60
35305;DHT22;26433;48.034;-1.764;2022-09-19T11:21:49;29.40;45.50
35305;DHT22;26433;48.034;-1.764;2022-09-19T11:27:07;29.30;45.20
35305;DHT22;26433;48.034;-1.764;2022-09-19T11:32:29;28.80;45.00
35305;DHT22;26433;48.034;-1.764;2022-09-19T11:38:10;28.90;44.80
35305;DHT22;26433;48.034;-1.764;2022-09-19T11:43:50;29.20;44.30
35305;DHT22;26433;48.034;-1.764;2022-09-19T11:49:26;29.60;43.70
35305;DHT22;26433;48.034;-1.764;2022-09-19T11:54:53;29.80;42.90
35305;DHT22;26433;48.034;-1.764;2022-09-19T12:00:06;29.90;43.00
35305;DHT22;26433;48.034;-1.764;2022-09-19T12:05:28;30.50;42.30
35305;DHT22;26433;48.034;-1.764;2022-09-19T12:10:37;31.00;41.50
35305;DHT22;26433;48.034;-1.764;2022-09-19T12:15:45;31.20;41.00
35305;DHT22;26433;48.034;-1.764;2022-09-19T12:20:53;31.50;40.60
35305;DHT22;26433;48.034;-1.764;2022-09-19T12:25:59;31.70;40.10
35305;DHT22;26433;48.034;-1.764;2022-09-19T12:31:07;31.40;40.20
35305;DHT22;26433;48.034;-1.764;2022-09-19T12:36:18;30.40;40.50
35305;DHT22;26433;48.034;-1.764;2022-09-19T12:41:35;29.40;41.10
35305;DHT22;26433;48.034;-1.764;2022-09-19T12:46:50;28.90;41.40
35305;DHT22;26433;48.034;-1.764;2022-09-19T12:52:08;28.80;41.40
35305;DHT22;26433;48.034;-1.764;2022-09-19T12:57:20;28.40;41.30
35305;DHT22;26433;48.034;-1.764;2022-09-19T13:02:27;28.40;41.30
35305;DHT22;26433;48.034;-1.764;2022-09-19T13:07:38;28.90;40.50
35305;DHT22;26433;48.034;-1.764;2022-09-19T13:12:47;29.20;39.90
35305;DHT22;26433;48.034;-1.764;2022-09-19T13:17:52;29.30;39.60
35305;DHT22;26433;48.034;-1.764;2022-09-19T13:23:21;29.70;39.10
35305;DHT22;26433;48.034;-1.764;2022-09-19T13:28:45;29.80;38.90
35305;DHT22;26433;48.034;-1.764;2022-09-19T13:33:50;29.60;38.70
35305;DHT22;26433;48.034;-1.764;2022-09-19T13:38:57;29.70;38.80
35305;DHT22;26433;48.034;-1.764;2022-09-19T13:44:12;30.10;38.40
35305;DHT22;26433;48.034;-1.764;2022-09-19T13:49:21;30.60;37.70
35305;DHT22;26433;48.034;-1.764;2022-09-19T13:54:58;30.40;37.80
35305;DHT22;26433;48.034;-1.764;2022-09-19T14:00:09;29.70;38.20
35305;DHT22;26433;48.034;-1.764;2022-09-19T14:05:18;29.00;38.90
35305;DHT22;26433;48.034;-1.764;2022-09-19T14:10:25;28.60;39.30
35305;DHT22;26433;48.034;-1.764;2022-09-19T14:15:44;28.50;39.00
35305;DHT22;26433;48.034;-1.764;2022-09-19T14:20:52;28.80;38.40
35305;DHT22;26433;48.034;-1.764;2022-09-19T14:25:59;29.00;38.10
35305;DHT22;26433;48.034;-1.764;2022-09-19T14:31:15;29.30;37.80
35305;DHT22;26433;48.034;-1.764;2022-09-19T14:36:49;29.30;37.70
35305;DHT22;26433;48.034;-1.764;2022-09-19T14:42:07;29.10;37.70
35305;DHT22;26433;48.034;-1.764;2022-09-19T14:47:18;28.70;37.90
35305;DHT22;26433;48.034;-1.764;2022-09-19T14:52:25;28.10;38.30
35305;DHT22;26433;48.034;-1.764;2022-09-19T14:57:31;27.50;38.80
35305;DHT22;26433;48.034;-1.764;2022-09-19T15:02:36;26.90;39.10
35305;DHT22;26433;48.034;-1.764;2022-09-19T15:07:40;26.60;39.40
35305;DHT22;26433;48.034;-1.764;2022-09-19T15:12:45;26.40;39.30
35305;DHT22;26433;48.034;-1.764;2022-09-19T15:17:51;26.10;39.50
35305;DHT22;26433;48.034;-1.764;2022-09-19T15:22:56;25.90;39.70
35305;DHT22;26433;48.034;-1.764;2022-09-19T15:28:19;25.60;39.90
35305;DHT22;26433;48.034;-1.764;2022-09-19T15:33:26;25.40;40.00
35305;DHT22;26433;48.034;-1.764;2022-09-19T15:38:32;25.20;40.00
35305;DHT22;26433;48.034;-1.764;2022-09-19T15:43:43;24.90;40.40
35305;DHT22;26433;48.034;-1.764;2022-09-19T15:48:48;24.80;40.50
35305;DHT22;26433;48.034;-1.764;2022-09-19T15:53:59;24.60;40.60
35305;DHT22;26433;48.034;-1.764;2022-09-19T15:59:04;24.50;40.80
35305;DHT22;26433;48.034;-1.764;2022-09-19T16:04:11;24.20;41.00
35305;DHT22;26433;48.034;-1.764;2022-09-19T16:09:17;24.00;41.30
35305;DHT22;26433;48.034;-1.764;2022-09-19T16:14:27;23.80;41.70
35305;DHT22;26433;48.034;-1.764;2022-09-19T16:19:41;23.60;41.90
35305;DHT22;26433;48.034;-1.764;2022-09-19T16:24:47;23.40;42.10
35305;DHT22;26433;48.034;-1.764;2022-09-19T16:29:54;23.30;42.30
35305;DHT22;26433;48.034;-1.764;2022-09-19T16:35:00;23.20;42.40
35305;DHT22;26433;48.034;-1.764;2022-09-19T16:40:06;23.00;42.60
35305;DHT22;26433;48.034;-1.764;2022-09-19T16:45:17;22.90;42.80
35305;DHT22;26433;48.034;-1.764;2022-09-19T16:50:22;22.80;42.90
35305;DHT22;26433;48.034;-1.764;2022-09-19T16:55:38;22.60;43.10
35305;DHT22;26433;48.034;-1.764;2022-09-19T17:00:44;22.50;43.30
35305;DHT22;26433;48.034;-1.764;2022-09-19T17:05:48;22.40;43.50
35305;DHT22;26433;48.034;-1.764;2022-09-19T17:10:52;22.40;43.80
35305;DHT22;26433;48.034;-1.764;2022-09-19T17:15:59;22.30;44.00
35305;DHT22;26433;48.034;-1.764;2022-09-19T17:21:07;22.20;44.10
35305;DHT22;26433;48.034;-1.764;2022-09-19T17:26:12;22.20;44.20
35305;DHT22;26433;48.034;-1.764;2022-09-19T17:31:18;22.10;44.40
35305;DHT22;26433;48.034;-1.764;2022-09-19T17:36:22;22.00;44.60
35305;DHT22;26433;48.034;-1.764;2022-09-19T17:41:26;22.00;44.80
35305;DHT22;26433;48.034;-1.764;2022-09-19T17:46:31;21.90;44.90
35305;DHT22;26433;48.034;-1.764;2022-09-19T17:51:34;21.80;45.10
35305;DHT22;26433;48.034;-1.764;2022-09-19T17:56:38;21.70;45.40
35305;DHT22;26433;48.034;-1.764;2022-09-19T18:01:43;21.60;45.80
35305;DHT22;26433;48.034;-1.764;2022-09-19T18:07:19;21.50;46.20
35305;DHT22;26433;48.034;-1.764;2022-09-19T18:12:23;21.40;46.50
35305;DHT22;26433;48.034;-1.764;2022-09-19T18:17:28;21.30;46.90
35305;DHT22;26433;48.034;-1.764;2022-09-19T18:22:34;21.10;47.30
35305;DHT22;26433;48.034;-1.764;2022-09-19T18:27:38;21.00;47.50
35305;DHT22;26433;48.034;-1.764;2022-09-19T18:32:43;20.80;48.00
35305;DHT22;26433;48.034;-1.764;2022-09-19T18:37:47;20.00;48.20
35305;DHT22;26433;48.034;-1.764;2022-09-19T18:42:50;20.60;49.10
35305;DHT22;26433;48.034;-1.764;2022-09-19T18:47:56;20.50;49.50
35305;DHT22;26433;48.034;-1.764;2022-09-19T18:53:00;20.40;50.00
35305;DHT22;26433;48.034;-1.764;2022-09-19T18:58:03;20.20;50.30
35305;DHT22;26433;48.034;-1.764;2022-09-19T19:03:09;20.10;50.70
35305;DHT22;26433;48.034;-1.764;2022-09-19T19:08:14;20.10;51.10
35305;DHT22;26433;48.034;-1.764;2022-09-19T19:13:18;19.90;51.40
35305;DHT22;26433;48.034;-1.764;2022-09-19T19:18:23;19.80;51.90
35305;DHT22;26433;48.034;-1.764;2022-09-19T19:23:27;19.70;52.20
35305;DHT22;26433;48.034;-1.764;2022-09-19T19:28:34;19.70;52.60
35305;DHT22;26433;48.034;-1.764;2022-09-19T19:33:39;19.60;53.00
35305;DHT22;26433;48.034;-1.764;2022-09-19T19:38:44;19.50;53.90
35305;DHT22;26433;48.034;-1.764;2022-09-19T19:43:48;19.40;53.70
35305;DHT22;26433;48.034;-1.764;2022-09-19T19:48:55;19.30;54.00
35305;DHT22;26433;48.034;-1.764;2022-09-19T19:53:59;19.30;54.40
35305;DHT22;26433;48.034;-1.764;2022-09-19T19:59:03;19.20;54.60
35305;DHT22;26433;48.034;-1.764;2022-09-19T20:04:10;19.10;54.80
35305;DHT22;26433;48.034;-1.764;2022-09-19T20:09:14;19.00;54.80
35305;DHT22;26433;48.034;-1.764;2022-09-19T20:14:17;18.80;55.20
35305;DHT22;26433;48.034;-1.764;2022-09-19T20:19:23;18.80;55.70
35305;DHT22;26433;48.034;-1.764;2022-09-19T20:24:27;18.70;56.10
35305;DHT22;26433;48.034;-1.764;2022-09-19T20:29:30;18.60;56.40
35305;DHT22;26433;48.034;-1.764;2022-09-19T20:34:36;18.60;56.80
35305;DHT22;26433;48.034;-1.764;2022-09-19T20:39:40;18.50;57.00
35305;DHT22;26433;48.034;-1.764;2022-09-19T20:44:43;18.40;57.40
35305;DHT22;26433;48.034;-1.764;2022-09-19T20:49:48;18.30;57.70
35305;DHT22;26433;48.034;-1.764;2022-09-19T20:54:58;18.20;58.10
35305;DHT22;26433;48.034;-1.764;2022-09-19T21:00:02;18.20;58.40
35305;DHT22;26433;48.034;-1.764;2022-09-19T21:05:08;18.10;58.70
35305;DHT22;26433;48.034;-1.764;2022-09-19T21:10:11;18.00;59.10
35305;DHT22;26433;48.034;-1.764;2022-09-19T21:15:15;17.90;59.30
35305;DHT22;26433;48.034;-1.764;2022-09-19T21:20:20;17.90;59.60
35305;DHT22;26433;48.034;-1.764;2022-09-19T21:25:24;17.80;59.90
35305;DHT22;26433;48.034;-1.764;2022-09-19T21:30:27;17.70;60.10
35305;DHT22;26433;48.034;-1.764;2022-09-19T21:35:32;17.60;60.40
35305;DHT22;26433;48.034;-1.764;2022-09-19T21:40:36;17.50;60.80
35305;DHT22;26433;48.034;-1.764;2022-09-19T21:45:40;17.50;61.10
35305;DHT22;26433;48.034;-1.764;2022-09-19T21:50:50;17.40;61.40
35305;DHT22;26433;48.034;-1.764;2022-09-19T21:55:54;17.30;61.70
35305;DHT22;26433;48.034;-1.764;2022-09-19T22:00:59;17.10;62.00
35305;DHT22;26433;48.034;-1.764;2022-09-19T22:06:04;17.00;62.40
35305;DHT22;26433;48.034;-1.764;2022-09-19T22:11:10;17.00;62.70
35305;DHT22;26433;48.034;-1.764;2022-09-19T22:16:17;16.90;63.00
35305;DHT22;26433;48.034;-1.764;2022-09-19T22:21:23;16.80;63.20
35305;DHT22;26433;48.034;-1.764;2022-09-19T22:26:28;16.70;63.50
